createdAt,value
2022-09-07T00:00:07.900Z,11.92
2022-09-07T00:05:09.991Z,11.90
2022-09-07T00:10:11.779Z,11.85
2022-09-07T00:15:13.770Z,11.79
2022-09-07T00:20:17.086Z,11.72
2022-09-07T00:25:18.879Z,11.71
2022-09-07T00:30:20.683Z,11.65
2022-09-07T00:35:22.504Z,11.63
2022-09-07T00:40:24.353Z,11.59
2022-09-07T00:45:26.192Z,11.66
2022-09-07T00:50:33.852Z,11.69
2022-09-07T00:55:37.655Z,11.63
2022-09-07T01:00:44.834Z,11.65
2022-09-07T01:05:53.775Z,11.66
2022-09-07T01:10:58.050Z,11.63
2022-09-07T01:16:13.155Z,11.64
2022-09-07T01:21:22.452Z,11.62
2022-09-07T01:26:54.546Z,11.59
2022-09-07T01:31:56.317Z,11.73
2022-09-07T01:37:01.000Z,11.67
2022-09-07T01:42:18.988Z,11.69
2022-09-07T01:47:25.821Z,11.72
2022-09-07T01:52:33.573Z,11.65
2022-09-07T01:57:43.690Z,11.64
2022-09-07T02:03:04.689Z,11.69
2022-09-07T02:08:12.966Z,11.66
2022-09-07T02:13:21.731Z,11.65
2022-09-07T02:18:27.269Z,11.60
2022-09-07T02:23:33.206Z,11.54
2022-09-07T02:28:36.720Z,11.50
2022-09-07T02:33:38.895Z,11.44
2022-09-07T02:38:40.770Z,11.57
2022-09-07T02:43:42.589Z,11.47
2022-09-07T02:49:04.061Z,11.39
2022-09-07T02:54:05.857Z,11.27
2022-09-07T02:59:17.558Z,11.20
2022-09-07T03:04:29.025Z,11.17
2022-09-07T03:09:37.535Z,11.16
2022-09-07T03:14:41.699Z,11.12
2022-09-07T03:19:43.532Z,11.10
2022-09-07T03:24:45.705Z,11.10
2022-09-07T03:29:47.482Z,11.35
2022-09-07T03:34:49.283Z,11.32
2022-09-07T03:39:51.128Z,11.23
2022-09-07T03:44:53.020Z,11.26
2022-09-07T03:49:54.845Z,11.34
2022-09-07T03:54:56.658Z,11.44
2022-09-07T03:59:58.514Z,11.51
2022-09-07T04:05:00.313Z,11.65
2022-09-07T04:10:02.381Z,11.74
2022-09-07T04:15:04.473Z,11.80
2022-09-07T04:20:06.929Z,11.91
2022-09-07T04:25:08.971Z,11.97
2022-09-07T04:30:11.444Z,12.07
2022-09-07T04:35:13.930Z,12.15
2022-09-07T04:40:15.871Z,12.25
2022-09-07T04:45:17.734Z,12.34
2022-09-07T04:50:19.545Z,12.46
2022-09-07T04:55:21.785Z,12.52
2022-09-07T05:00:23.706Z,12.62
2022-09-07T05:05:25.632Z,12.67
2022-09-07T05:10:27.495Z,12.76
2022-09-07T05:15:30.639Z,12.87
2022-09-07T05:20:32.844Z,12.91
2022-09-07T05:25:34.945Z,12.95
2022-09-07T05:35:59.718Z,12.92
2022-09-07T05:41:02.096Z,12.88
2022-09-07T05:46:04.201Z,12.88
2022-09-07T05:51:07.085Z,12.97
2022-09-07T05:56:09.619Z,13.09
2022-09-07T06:01:12.618Z,13.22
2022-09-07T06:06:17.571Z,13.45
2022-09-07T06:11:22.288Z,13.75
2022-09-07T06:16:24.153Z,14.19
2022-09-07T06:21:26.069Z,14.60
2022-09-07T06:26:27.867Z,15.12
2022-09-07T06:31:30.046Z,15.55
2022-09-07T06:36:31.886Z,15.81
2022-09-07T06:52:04.259Z,16.05
2022-09-07T06:57:09.262Z,16.12
2022-09-07T07:02:15.102Z,16.28
2022-09-07T07:07:17.037Z,16.60
2022-09-07T07:17:19.537Z,17.11
2022-09-07T07:22:45.555Z,17.54
2022-09-07T07:27:45.999Z,18.15
2022-09-07T07:32:48.439Z,18.80
2022-09-07T07:43:15.802Z,19.93
2022-09-07T07:48:17.617Z,20.29
2022-09-07T07:58:45.401Z,20.70
2022-09-07T08:03:47.374Z,21.56
2022-09-07T08:08:49.217Z,21.93
2022-09-07T08:13:51.250Z,22.42
2022-09-07T08:18:53.761Z,22.76
2022-09-07T08:23:55.668Z,22.86
2022-09-07T08:28:58.778Z,22.57
2022-09-07T08:34:00.547Z,22.53
2022-09-07T08:39:02.625Z,22.56
2022-09-07T08:44:18.491Z,22.43
2022-09-07T08:49:30.278Z,22.62
2022-09-07T08:54:33.191Z,22.95
2022-09-07T08:59:42.995Z,23.13
2022-09-07T09:10:09.667Z,23.63
2022-09-07T09:15:21.311Z,23.81
2022-09-07T09:20:47.721Z,24.03
2022-09-07T09:25:59.586Z,24.82
2022-09-07T09:31:01.496Z,25.17
2022-09-07T09:36:03.315Z,25.25
2022-09-07T09:41:23.779Z,25.34
2022-09-07T09:46:27.315Z,24.91
2022-09-07T09:56:54.904Z,24.41
2022-09-07T10:07:27.417Z,24.62
2022-09-07T10:12:32.879Z,24.83
2022-09-07T10:17:47.666Z,25.00
2022-09-07T10:22:52.174Z,25.45
2022-09-07T10:28:08.435Z,26.20
2022-09-07T10:33:33.721Z,26.40
2022-09-07T10:38:44.868Z,26.09
2022-09-07T10:43:50.154Z,25.49
2022-09-07T10:49:40.009Z,26.17
2022-09-07T10:54:53.402Z,26.63
2022-09-07T11:00:16.190Z,27.30
2022-09-07T11:05:20.611Z,28.66
2022-09-07T11:10:42.029Z,30.08
2022-09-07T11:15:56.817Z,31.71
2022-09-07T11:21:01.778Z,30.25
2022-09-07T11:26:12.440Z,29.34
2022-09-07T11:31:23.324Z,28.24
2022-09-07T11:36:28.936Z,27.81
2022-09-07T11:41:36.996Z,28.50
2022-09-07T11:46:48.966Z,28.73
2022-09-07T11:51:53.560Z,28.68
2022-09-07T11:57:15.820Z,27.97
2022-09-07T12:02:59.782Z,26.98
2022-09-07T12:08:10.966Z,27.64
2022-09-07T12:13:34.857Z,29.60
2022-09-07T12:19:07.434Z,30.84
2022-09-07T12:24:43.166Z,29.55
2022-09-07T12:29:45.723Z,28.16
2022-09-07T12:34:53.588Z,27.67
2022-09-07T12:40:29.227Z,27.12
2022-09-07T12:45:30.956Z,26.57
2022-09-07T12:50:55.534Z,26.52
2022-09-07T12:56:17.482Z,26.42
2022-09-07T13:01:28.472Z,31.59
2022-09-07T13:07:05.599Z,31.97
2022-09-07T13:12:57.910Z,33.81
2022-09-07T13:17:59.739Z,35.51
2022-09-07T13:23:21.544Z,36.82
2022-09-07T13:28:28.790Z,35.98
2022-09-07T13:33:30.345Z,35.23
2022-09-07T13:38:36.396Z,34.37
2022-09-07T13:43:38.089Z,36.07
2022-09-07T13:49:01.124Z,37.13
2022-09-07T13:54:36.993Z,36.70
2022-09-07T13:59:42.467Z,37.87
2022-09-07T14:04:49.189Z,36.90
2022-09-07T14:10:20.645Z,37.75
2022-09-07T14:15:34.581Z,37.16
2022-09-07T14:20:43.757Z,36.75
2022-09-07T14:31:16.394Z,35.50
2022-09-07T14:41:43.273Z,29.65
2022-09-07T14:46:50.582Z,29.24
2022-09-07T14:51:55.325Z,28.62
2022-09-07T14:57:10.536Z,28.49
2022-09-07T15:02:18.238Z,28.47
2022-09-07T15:07:37.283Z,28.48
2022-09-07T15:12:42.213Z,28.19
2022-09-07T15:17:44.782Z,28.27
2022-09-07T15:22:46.443Z,28.18
2022-09-07T15:27:48.023Z,28.01
2022-09-07T15:32:49.607Z,27.73
2022-09-07T15:38:59.428Z,27.57
2022-09-07T15:43:20.317Z,27.45
2022-09-07T15:48:25.179Z,27.39
2022-09-07T15:58:53.137Z,26.72
2022-09-07T16:03:57.003Z,25.80
2022-09-07T16:08:58.626Z,24.74
2022-09-07T16:14:02.380Z,24.22
2022-09-07T16:19:07.307Z,23.90
2022-09-07T16:24:10.354Z,23.73
2022-09-07T16:29:12.159Z,23.63
2022-09-07T16:34:18.283Z,23.33
2022-09-07T16:39:20.349Z,22.95
2022-09-07T16:44:21.878Z,22.80
2022-09-07T16:49:23.534Z,22.74
2022-09-07T16:54:25.032Z,22.48
2022-09-07T16:59:26.815Z,22.33
2022-09-07T17:04:29.075Z,22.27
2022-09-07T17:09:30.713Z,22.20
2022-09-07T17:14:32.229Z,22.65
2022-09-07T17:19:34.456Z,22.34
2022-09-07T17:24:36.179Z,22.01
2022-09-07T17:29:37.937Z,21.70
2022-09-07T17:34:39.475Z,21.52
2022-09-07T17:39:41.221Z,21.20
2022-09-07T17:44:42.893Z,20.84
2022-09-07T17:49:44.982Z,20.72
2022-09-07T17:54:47.299Z,20.51
2022-09-07T18:05:11.518Z,20.01
2022-09-07T18:10:13.232Z,19.82
2022-09-07T18:15:14.900Z,19.63
2022-09-07T18:20:17.004Z,19.46
2022-09-07T18:25:18.602Z,19.35
2022-09-07T18:30:20.253Z,19.36
2022-09-07T18:35:22.514Z,19.36
2022-09-07T18:40:24.099Z,19.26
2022-09-07T18:45:27.509Z,19.06
2022-09-07T18:50:29.452Z,19.20
2022-09-07T18:55:32.232Z,19.22
2022-09-07T19:00:33.862Z,19.02
2022-09-07T19:05:51.419Z,18.81
2022-09-07T19:10:54.157Z,18.81
2022-09-07T19:16:07.452Z,18.77
2022-09-07T19:21:14.744Z,18.87
2022-09-07T19:26:18.283Z,18.93
2022-09-07T19:31:19.980Z,18.80
2022-09-07T19:36:21.887Z,18.56
2022-09-07T19:41:23.774Z,18.38
2022-09-07T19:46:25.770Z,18.09
2022-09-07T19:51:27.747Z,17.84
2022-09-07T19:56:29.245Z,17.62
2022-09-07T20:01:31.142Z,17.38
2022-09-07T20:06:34.278Z,17.18
2022-09-07T20:11:36.382Z,17.08
2022-09-07T20:16:39.912Z,17.12
2022-09-07T20:21:42.049Z,16.94
2022-09-07T20:26:43.544Z,16.86
2022-09-07T20:31:45.780Z,16.84
2022-09-07T20:36:52.321Z,16.78
2022-09-07T20:41:54.021Z,16.66
2022-09-07T20:46:55.679Z,16.54
2022-09-07T20:51:57.306Z,16.39
2022-09-07T20:57:03.266Z,16.28
2022-09-07T21:02:05.646Z,16.09
2022-09-07T21:07:07.200Z,16.07
2022-09-07T21:12:08.721Z,15.99
2022-09-07T21:17:10.286Z,15.92
2022-09-07T21:22:11.900Z,15.89
2022-09-07T21:27:13.409Z,15.78
2022-09-07T21:32:14.920Z,15.74
2022-09-07T21:37:16.768Z,15.68
2022-09-07T21:42:18.283Z,15.58
2022-09-07T21:47:19.832Z,15.78
2022-09-07T21:52:21.340Z,15.73
2022-09-07T21:57:23.439Z,15.68
2022-09-07T22:02:25.054Z,15.64
2022-09-07T22:07:26.606Z,15.51
2022-09-07T22:12:28.619Z,15.42
2022-09-07T22:17:44.474Z,15.26
2022-09-07T22:22:47.789Z,15.19
2022-09-07T22:27:49.636Z,15.03
2022-09-07T22:32:51.920Z,14.96
2022-09-07T22:37:53.496Z,14.85
2022-09-07T22:42:55.067Z,14.80
2022-09-07T22:47:57.345Z,14.76
2022-09-07T22:52:59.202Z,14.69
2022-09-07T22:58:00.706Z,14.81
2022-09-07T23:03:03.768Z,14.84
2022-09-07T23:08:05.814Z,14.78
2022-09-07T23:13:09.032Z,14.69
2022-09-07T23:18:19.340Z,14.71
2022-09-07T23:23:20.924Z,14.61
2022-09-07T23:28:22.555Z,14.53
2022-09-07T23:33:26.122Z,14.49
2022-09-07T23:38:28.444Z,14.46
2022-09-07T23:43:31.360Z,14.40
2022-09-07T23:48:33.044Z,14.41
2022-09-07T23:53:35.045Z,14.46
2022-09-07T23:58:36.714Z,14.36
